Menahga, MN

4:33 AM CDT on July 02, 2015 (GMT -0500)
Pyburn Addition | | Change Station
CLOSE
Current Station
Personal Weather Station
Location: Menahga, MN
Elevation: 1444 ft
Nearby Weather Stations

Elev 1444 ft 46.84 °N, 95.09 °W | Updated 30 seconds ago

Partly Cloudy
Partly Cloudy
56.5 °F
Feels Like 56.5 °F
N
0.0
Wind Variable Wind from SW
Gusts 0.0 mph

Today
High -- | Low -- °F
--% Chance of Precip.
Yesterday
High -- | Low -- °F
Precip. -- in
5:30 AM 9:17 PM
Full, 100% visible
Pressure 29.99 in
Visibility 10.0 miles
Clouds Few 8000 ft
Dew Point 56 °F
Humidity 97%
Rainfall 0.00 in
Snow Depth Not available.
UV 0.0 out of 12
Pollen .60 out of 12
Air Quality Not available.
Flu Activity Not available.
METAR KPKD 020853Z AUTO 23003KT 10SM FEW080 16/13 A3000 RMK AO2 SLP154 T01610128 58003

More Conditions Fewer Conditions

Pressure 29.99 in
Visibility 10.0 miles
Clouds Few 8000 ft
Dew Point 56 °F
Humidity 97%
Rainfall 0.00 in
Snow Depth Not available.
UV 0.0 out of 12
Pollen .60 out of 12
Air Quality Not available.
Flu Activity Not available.
METAR KPKD 020853Z AUTO 23003KT 10SM FEW080 16/13 A3000 RMK AO2 SLP154 T01610128 58003

More Conditions Fewer Conditions

10-Day Weather Forecast

×

Almanac

Astronomy

Jul. 02, 2015 Rise Set
Actual Time
Civil Twilight
Nautical Twilight
Astronomical Twilight
Moon
Length of Visible Light
Length of Day
Tomorrow will be .
, % of the Moon is Illuminated

Today's Extremes

State Highs State Lows

Community

WunderPhotos

Upload Photos

1,834,434 photos uploaded!

WunderBlogs® & News

Nearby

Air Quality

  Air Quality AQ Index Pollutant
Not available.

Snow Depth

Station Depth Elevation

Earthquake Activity

City Distance Mag. Time & Date
Minimum magnitude displayed is 2.5.

Coastal Water Temperatures

Place Temperature

Stations

Nearby Weather Stations

Station Location Temp. Windchill Dew Point Humidity Wind Precip. Elev Updated Type